Time;durP1;ratioP1;P1;durP2;ratioP2;P2;SDS_P1;SDS_P2;PMS_P1;PMS_P2;Temp;Humidity;BMP_temperature;BMP_pressure;BME280_temperature;BME280_humidity;BME280_pressure;Samples;Min_cycle;Max_cycle;Signal;HPM_P1;HPM_P2
2022/01/01 00:00:52;;;;;;;9.38;7.78;;;;;;;28.83;51.98;101268.09;5012583;28;71143;-39
2022/01/01 00:03:23;;;;;;;8.02;7.22;;;;;;;28.88;51.52;101277.28;5011619;28;66441;-38
2022/01/01 00:05:54;;;;;;;16.52;8.18;;;;;;;28.82;51.58;101278.06;5014441;28;70314;-38
2022/01/01 00:08:24;;;;;;;14.52;8.45;;;;;;;28.77;51.34;101285.91;5018514;28;65983;-39
2022/01/01 00:10:55;;;;;;;16.45;8.50;;;;;;;28.75;51.81;101282.56;5015981;28;69530;-38
2022/01/01 00:13:45;;;;;;;15.80;8.98;;;;;;;28.75;52.39;101287.97;5011765;28;65658;-38
2022/01/01 00:16:35;;;;;;;21.27;9.68;;;;;;;28.77;52.73;101290.47;5008601;28;70803;-39
2022/01/01 00:19:06;;;;;;;17.58;8.82;;;;;;;28.83;53.13;101300.50;5019430;28;66227;-39
2022/01/01 00:21:36;;;;;;;31.90;9.10;;;;;;;28.83;53.22;101295.09;5014135;28;70137;-39
2022/01/01 00:24:07;;;;;;;29.52;9.85;;;;;;;28.84;53.37;101303.00;5015939;28;66079;-38
2022/01/01 00:26:37;;;;;;;27.17;9.70;;;;;;;28.93;53.34;101304.53;5013630;28;69419;-37
2022/01/01 00:29:08;;;;;;;18.35;8.63;;;;;;;28.91;53.94;101309.28;5018034;28;66337;-37
2022/01/01 00:31:38;;;;;;;16.58;9.90;;;;;;;28.95;52.44;101315.13;5017329;28;69428;-42
2022/01/01 00:34:08;;;;;;;23.73;11.30;;;;;;;28.88;52.20;101309.66;5010597;28;66213;-42
2022/01/01 00:36:39;;;;;;;17.10;10.65;;;;;;;28.81;51.76;101311.50;5005997;28;69072;-44
2022/01/01 00:39:09;;;;;;;16.38;11.27;;;;;;;28.76;52.37;101311.25;5013744;28;67013;-43
2022/01/01 00:41:39;;;;;;;22.63;11.00;;;;;;;28.80;52.28;101322.50;5008738;28;69643;-42
2022/01/01 00:44:10;;;;;;;21.38;10.65;;;;;;;28.76;51.87;101322.06;5012958;28;65797;-43
2022/01/01 00:46:40;;;;;;;19.45;10.82;;;;;;;28.68;51.65;101319.50;5020014;28;70537;-43
2022/01/01 00:49:11;;;;;;;17.10;10.57;;;;;;;28.67;51.54;101317.84;5010336;28;66640;-42
2022/01/01 00:51:42;;;;;;;14.00;10.23;;;;;;;28.64;51.96;101324.44;5009365;28;70626;-42
2022/01/01 00:54:12;;;;;;;18.20;9.95;;;;;;;28.59;51.79;101326.06;5016930;28;65132;-42
2022/01/01 00:56:43;;;;;;;16.83;11.15;;;;;;;28.55;51.84;101330.16;5015903;28;69925;-42
2022/01/01 00:59:15;;;;;;;20.45;11.07;;;;;;;28.52;52.25;101329.53;5013417;28;65453;-42
2022/01/01 01:01:46;;;;;;;15.13;11.40;;;;;;;28.49;51.98;101329.91;5018749;28;70230;-42
2022/01/01 01:04:17;;;;;;;22.08;12.48;;;;;;;28.45;51.76;101325.94;5014947;28;66325;-42
2022/01/01 01:06:47;;;;;;;22.67;11.57;;;;;;;28.45;52.18;101331.34;5019575;28;69991;-41
2022/01/01 01:09:18;;;;;;;18.52;11.20;;;;;;;28.45;51.89;101339.44;5020257;28;66147;-41
2022/01/01 01:11:52;;;;;;;24.15;9.93;;;;;;;28.43;52.09;101344.19;5012678;28;69440;-41
2022/01/01 01:14:24;;;;;;;17.05;10.30;;;;;;;28.39;52.27;101332.09;5008680;28;66179;-42
2022/01/01 01:16:55;;;;;;;15.30;9.52;;;;;;;28.28;52.12;101309.16;5019589;28;70342;-42
2022/01/01 01:19:25;;;;;;;12.95;9.50;;;;;;;28.44;52.18;101340.44;5018480;28;65982;-42
2022/01/01 01:21:55;;;;;;;15.65;8.82;;;;;;;28.44;51.79;101345.00;5020364;28;69252;-42
2022/01/01 01:24:26;;;;;;;11.18;9.20;;;;;;;28.44;52.24;101350.41;5000453;28;65380;-43
2022/01/01 01:27:01;;;;;;;13.15;9.45;;;;;;;28.45;52.11;101352.94;5013926;28;69996;-42
2022/01/01 01:29:41;;;;;;;29.77;10.45;;;;;;;28.47;52.16;101356.28;5015867;28;65840;-43
2022/01/01 01:32:12;;;;;;;24.42;11.25;;;;;;;28.51;52.26;101351.31;5016080;28;70423;-44
2022/01/01 01:34:42;;;;;;;20.08;11.23;;;;;;;28.54;51.94;101352.81;5016108;28;66541;-42
2022/01/01 01:37:12;;;;;;;21.50;13.05;;;;;;;28.59;52.05;101369.25;5015494;28;69299;-42
2022/01/01 01:39:43;;;;;;;29.45;13.35;;;;;;;28.62;52.33;101363.47;5014966;28;65592;-42
2022/01/01 01:42:14;;;;;;;23.48;12.90;;;;;;;28.63;52.10;101357.03;5020926;28;69964;-41
2022/01/01 01:44:47;;;;;;;16.00;11.20;;;;;;;28.63;52.09;101348.94;5015060;28;65336;-42
2022/01/01 01:47:27;;;;;;;18.85;12.20;;;;;;;28.66;51.93;101359.34;5013978;28;70788;-42
2022/01/01 01:50:00;;;;;;;22.50;12.23;;;;;;;28.67;52.16;101355.63;5015959;28;66315;-40
2022/01/01 01:52:36;;;;;;;13.55;11.68;;;;;;;28.70;51.75;101360.63;5006587;28;70075;-40
2022/01/01 01:55:09;;;;;;;21.35;12.55;;;;;;;28.57;52.08;101328.94;5019587;28;66029;-41
2022/01/01 01:57:41;;;;;;;24.80;12.10;;;;;;;28.62;52.11;101329.19;5016795;28;70520;-42
2022/01/01 02:02:58;;;;;;;27.85;13.23;;;;;;;28.85;51.61;101353.28;4999879;28;69918;-44
2022/01/01 02:05:28;;;;;;;23.52;13.63;;;;;;;28.85;51.94;101349.75;5018397;28;66546;-43
2022/01/01 02:07:59;;;;;;;23.02;13.30;;;;;;;28.84;51.84;101346.22;5002812;28;70045;-42
2022/01/01 02:10:31;;;;;;;25.10;13.00;;;;;;;28.88;52.16;101352.06;5018835;28;65885;-43
2022/01/01 02:13:10;;;;;;;34.03;13.30;;;;;;;28.87;51.95;101345.81;5011493;28;70339;-41
2022/01/01 02:18:17;;;;;;;30.52;13.23;;;;;;;28.99;51.64;101350.69;5015556;28;69871;-43
2022/01/01 02:20:51;;;;;;;24.48;14.13;;;;;;;29.04;51.45;101362.59;5020046;28;65427;-45
2022/01/01 02:23:25;;;;;;;34.42;14.32;;;;;;;29.07;51.21;101355.97;5015417;28;69557;-42
2022/01/01 02:25:56;;;;;;;41.63;15.85;;;;;;;29.10;51.28;101360.97;5019776;28;66750;-42
2022/01/01 02:28:26;;;;;;;25.00;14.18;;;;;;;29.09;51.63;101353.91;5019191;28;70288;-43
2022/01/01 02:30:57;;;;;;;24.00;13.40;;;;;;;29.11;51.11;101352.69;5026525;28;65768;-43
2022/01/01 02:33:28;;;;;;;27.98;14.32;;;;;;;29.17;51.22;101361.88;5015676;28;69791;-43
2022/01/01 02:35:59;;;;;;;35.22;13.45;;;;;;;29.18;50.79;101363.53;5033874;28;65743;-43
2022/01/01 02:38:31;;;;;;;22.45;12.57;;;;;;;29.15;51.30;101364.75;5032686;28;69681;-42
2022/01/01 02:41:03;;;;;;;36.92;13.10;;;;;;;29.16;51.23;101360.19;5018536;28;65550;-43
2022/01/01 02:43:44;;;;;;;30.20;12.73;;;;;;;29.18;50.37;101360.81;5017660;28;69531;-42
2022/01/01 02:46:14;;;;;;;32.72;11.60;;;;;;;29.20;51.22;101352.50;5012924;28;66640;-43
2022/01/01 02:48:45;;;;;;;30.33;12.15;;;;;;;29.19;51.10;101348.97;5010999;28;69437;-43
2022/01/01 02:51:16;;;;;;;30.92;11.95;;;;;;;29.22;50.86;101353.16;5007281;28;65321;-44
2022/01/01 02:53:46;;;;;;;19.80;11.45;;;;;;;29.27;50.88;101356.94;5011513;28;69520;-42
2022/01/01 02:56:16;;;;;;;38.60;12.45;;;;;;;29.31;51.30;101363.63;5014334;28;66350;-43
2022/01/01 02:58:47;;;;;;;33.50;11.95;;;;;;;29.32;50.65;101359.88;5015740;28;69959;-45
2022/01/01 03:01:18;;;;;;;32.60;11.25;;;;;;;29.36;50.75;101358.47;5029248;28;65704;-39
2022/01/01 03:03:48;;;;;;;25.38;9.95;;;;;;;29.39;50.91;101357.19;5015245;28;70897;-39
2022/01/01 03:06:20;;;;;;;33.67;10.93;;;;;;;29.09;50.71;101299.88;5015617;28;65939;-38
2022/01/01 03:08:52;;;;;;;31.53;10.83;;;;;;;29.49;50.28;101359.56;5015370;28;69808;-44
2022/01/01 03:11:23;;;;;;;29.50;10.02;;;;;;;29.29;49.68;101317.03;5006585;28;66982;-44
2022/01/01 03:13:53;;;;;;;21.88;9.93;;;;;;;29.56;49.69;101346.91;5014041;28;68597;-42
2022/01/01 03:16:24;;;;;;;22.20;9.55;;;;;;;29.59;48.98;101344.66;5013951;28;66354;-43
2022/01/01 03:18:54;;;;;;;22.13;8.98;;;;;;;29.63;48.25;101345.09;5011910;28;69582;-42
2022/01/01 03:21:24;;;;;;;19.55;9.00;;;;;;;29.66;49.09;101344.69;5015995;28;66196;-43
2022/01/01 03:23:55;;;;;;;21.67;10.23;;;;;;;29.70;49.40;101337.00;5011533;28;69697;-44
2022/01/01 03:26:25;;;;;;;27.48;10.90;;;;;;;29.72;49.06;101343.88;5006455;28;66659;-44
2022/01/01 03:28:55;;;;;;;18.17;11.00;;;;;;;29.76;48.94;101339.75;5008513;28;70437;-43
2022/01/01 03:31:26;;;;;;;33.90;11.95;;;;;;;29.78;48.95;101336.84;5014400;28;65133;-43
2022/01/01 03:33:58;;;;;;;36.70;12.45;;;;;;;29.83;48.65;101335.19;5016011;28;69818;-45
2022/01/01 03:36:28;;;;;;;;;;;;;;;29.59;49.04;101333.00;5010118;28;65598;-44
2022/01/01 03:38:59;;;;;;;25.17;10.07;;;;;;;29.79;48.63;101316.91;5013236;28;69921;-44
2022/01/01 03:41:30;;;;;;;23.75;9.60;;;;;;;29.80;48.19;101319.38;5015195;28;66820;-45
2022/01/01 03:44:00;;;;;;;16.50;9.00;;;;;;;29.88;47.42;101322.94;5015696;28;70099;-44
2022/01/01 03:46:30;;;;;;;20.02;9.55;;;;;;;29.91;47.75;101330.66;5015482;28;66516;-45
2022/01/01 03:49:01;;;;;;;20.13;9.70;;;;;;;29.89;47.84;101321.91;5012251;28;70362;-43
2022/01/01 03:51:31;;;;;;;23.95;10.00;;;;;;;29.95;48.34;101321.09;5013349;28;65807;-44
2022/01/01 03:54:02;;;;;;;20.85;10.70;;;;;;;29.99;47.93;101327.78;5017603;28;69581;-44
2022/01/01 03:56:32;;;;;;;29.70;10.07;;;;;;;30.01;47.49;101325.72;5017300;28;65162;-45
2022/01/01 03:59:03;;;;;;;25.63;10.25;;;;;;;30.05;47.35;101327.78;5019179;28;69987;-44
2022/01/01 04:01:33;;;;;;;25.50;10.90;;;;;;;30.09;47.55;101322.81;5017055;28;66305;-44
2022/01/01 04:04:04;;;;;;;14.43;9.75;;;;;;;30.12;46.68;101322.41;5014261;28;70425;-43
2022/01/01 04:06:35;;;;;;;19.10;9.52;;;;;;;30.11;47.08;101320.72;5019152;28;65372;-43
2022/01/01 04:09:05;;;;;;;16.83;9.75;;;;;;;30.19;46.69;101317.81;5018270;28;70778;-45
2022/01/01 04:11:35;;;;;;;15.32;9.70;;;;;;;30.20;47.30;101305.97;5018415;28;66508;-45
2022/01/01 04:14:11;;;;;;;18.33;10.40;;;;;;;30.19;46.92;101307.00;4994541;28;69411;-43
2022/01/01 04:16:42;;;;;;;10.13;8.75;;;;;;;30.19;46.88;101301.59;5012059;28;66295;-43
2022/01/01 04:19:13;;;;;;;20.15;9.27;;;;;;;30.21;46.97;101299.53;5013903;28;69945;-44
2022/01/01 04:21:43;;;;;;;14.73;9.05;;;;;;;30.27;47.98;101296.00;5010238;28;65138;-44
2022/01/01 04:24:13;;;;;;;21.15;10.25;;;;;;;30.30;47.91;101292.06;5014648;28;70063;-45
2022/01/01 04:26:44;;;;;;;19.65;10.57;;;;;;;30.30;47.15;101288.53;5015907;28;66739;-43
2022/01/01 04:29:16;;;;;;;13.75;9.48;;;;;;;30.36;46.64;101285.81;5016165;28;68958;-42
2022/01/01 04:31:46;;;;;;;15.90;9.65;;;;;;;30.34;47.58;101270.81;5015185;28;66443;-44
2022/01/01 04:34:17;;;;;;;14.07;9.85;;;;;;;30.43;47.61;101277.72;5014873;28;69183;-44
2022/01/01 04:37:12;;;;;;;23.20;10.10;;;;;;;30.43;47.54;101265.00;5000345;28;65702;-42
2022/01/01 04:39:42;;;;;;;16.77;9.93;;;;;;;30.41;47.73;101247.31;5017602;28;69406;-43
2022/01/01 04:42:13;;;;;;;22.27;10.35;;;;;;;30.47;47.16;101246.47;5021610;28;66710;-43
2022/01/01 04:44:43;;;;;;;12.93;9.75;;;;;;;30.52;47.08;101241.28;5016967;28;69324;-43
2022/01/01 04:47:13;;;;;;;17.45;10.77;;;;;;;30.54;47.62;101233.78;5017925;28;65903;-42
2022/01/01 04:49:44;;;;;;;18.00;10.80;;;;;;;30.59;47.07;101223.16;5019830;28;69597;-43
2022/01/01 04:52:14;;;;;;;16.77;10.60;;;;;;;30.63;46.79;101232.50;5017887;28;66026;-44
2022/01/01 04:54:45;;;;;;;19.15;11.10;;;;;;;30.65;47.07;101219.59;5018951;28;70009;-42
2022/01/01 04:57:16;;;;;;;17.63;10.85;;;;;;;30.59;46.97;101204.19;5019589;28;66554;-44
2022/01/01 04:59:46;;;;;;;17.13;11.80;;;;;;;30.75;46.79;101218.31;5020380;28;70413;-43
2022/01/01 05:02:17;;;;;;;34.40;16.42;;;;;;;30.77;47.19;101208.94;5027493;28;65280;-43
2022/01/01 05:04:52;;;;;;;23.98;13.98;;;;;;;30.81;46.95;101212.91;5018247;28;69707;-42
2022/01/01 05:07:23;;;;;;;25.48;12.52;;;;;;;30.82;46.98;101194.81;5019290;28;66735;-41
2022/01/01 05:09:53;;;;;;;32.17;13.03;;;;;;;30.71;46.05;101199.78;5018549;28;70102;-42
2022/01/01 05:12:24;;;;;;;32.60;12.43;;;;;;;30.57;45.50;101200.88;5015303;28;66471;-40
2022/01/01 05:14:54;;;;;;;23.38;11.73;;;;;;;30.42;45.56;101187.56;5016016;28;69583;-42
2022/01/01 05:17:25;;;;;;;23.67;11.77;;;;;;;30.36;46.41;101190.25;5017298;28;66116;-43
2022/01/01 05:19:55;;;;;;;25.80;11.27;;;;;;;30.30;45.63;101174.88;5015900;28;69503;-43
2022/01/01 05:22:26;;;;;;;21.13;11.10;;;;;;;30.22;45.76;101175.91;5016604;28;66065;-41
2022/01/01 05:24:59;;;;;;;20.45;10.32;;;;;;;30.13;45.32;101166.31;5017035;28;70054;-42
2022/01/01 05:27:35;;;;;;;17.88;11.40;;;;;;;30.03;44.35;101150.47;5007944;28;66314;-41
2022/01/01 05:30:07;;;;;;;10.80;9.90;;;;;;;29.99;44.60;101144.66;5005203;28;69232;-42
2022/01/01 05:32:38;;;;;;;15.35;9.05;;;;;;;29.94;44.10;101130.09;5018922;28;66378;-42
2022/01/01 05:35:09;;;;;;;30.25;10.55;;;;;;;29.84;44.66;101125.94;5016759;28;69169;-42
2022/01/01 05:37:39;;;;;;;31.98;10.30;;;;;;;29.81;44.38;101130.91;5021338;28;65963;-41
2022/01/01 05:40:10;;;;;;;32.17;10.20;;;;;;;29.73;44.11;101118.47;5016544;28;69543;-40
2022/01/01 05:42:41;;;;;;;29.70;9.88;;;;;;;29.70;43.95;101129.69;5020452;28;65758;-42
2022/01/01 05:45:11;;;;;;;27.38;9.48;;;;;;;29.64;43.44;101119.66;5019581;28;69761;-42
2022/01/01 05:47:42;;;;;;;17.10;9.80;;;;;;;29.69;43.36;101116.34;5020978;28;66363;-41
2022/01/01 05:50:12;;;;;;;13.52;9.20;;;;;;;29.66;43.12;101104.09;5007894;28;71163;-43
2022/01/01 05:52:44;;;;;;;13.15;8.35;;;;;;;29.66;43.12;101106.78;5018588;28;66108;-42
2022/01/01 05:55:14;;;;;;;12.32;8.55;;;;;;;29.62;42.23;101092.00;5018596;28;71024;-42
2022/01/01 05:57:44;;;;;;;11.70;8.57;;;;;;;29.59;42.01;101090.53;5018228;28;66203;-42
2022/01/01 06:00:15;;;;;;;10.52;8.32;;;;;;;29.58;41.82;101088.84;5017489;28;69810;-42
2022/01/01 06:02:46;;;;;;;15.90;8.68;;;;;;;29.53;41.72;101079.72;5019210;28;67647;-42
2022/01/01 06:05:18;;;;;;;14.07;8.48;;;;;;;29.51;41.64;101073.69;5014556;28;70502;-43
2022/01/01 06:07:48;;;;;;;8.50;7.90;;;;;;;29.53;41.70;101079.72;5024312;28;65157;-42
2022/01/01 06:10:18;;;;;;;9.88;8.38;;;;;;;29.54;40.92;101065.16;5006264;28;70076;-43
2022/01/01 06:12:49;;;;;;;9.15;8.25;;;;;;;29.49;40.57;101071.19;5030382;28;66135;-43
2022/01/01 06:15:20;;;;;;;9.00;7.63;;;;;;;29.47;40.98;101057.03;5011573;28;70170;-42
2022/01/01 06:17:51;;;;;;;8.43;7.72;;;;;;;29.47;40.69;101048.94;5016193;28;67451;-42
2022/01/01 06:20:21;;;;;;;8.75;8.05;;;;;;;29.48;40.10;101055.19;5013587;28;69946;-44
2022/01/01 06:23:05;;;;;;;8.27;7.57;;;;;;;29.44;40.35;101038.53;5019594;28;66230;-43
2022/01/01 06:25:36;;;;;;;8.40;7.80;;;;;;;29.44;40.45;101035.00;5021371;28;69509;-42
2022/01/01 06:28:06;;;;;;;7.95;7.25;;;;;;;29.45;39.96;101028.56;5014424;28;66139;-43
2022/01/01 06:30:37;;;;;;;8.70;7.82;;;;;;;29.48;40.31;101034.41;5017287;28;70462;-41
2022/01/01 06:33:15;;;;;;;8.55;7.45;;;;;;;29.47;40.28;101032.72;5018054;28;65661;-44
2022/01/01 06:35:50;;;;;;;7.18;6.68;;;;;;;29.48;40.85;101022.75;5017607;28;70100;-42
2022/01/01 06:38:23;;;;;;;9.27;6.88;;;;;;;29.50;40.53;101026.06;5026464;28;66555;-43
2022/01/01 06:40:54;;;;;;;8.40;7.47;;;;;;;29.51;40.29;101027.75;5018089;28;70074;-42
2022/01/01 06:43:24;;;;;;;7.90;7.35;;;;;;;29.52;40.81;101032.09;5015479;28;66181;-43
2022/01/01 06:45:54;;;;;;;7.80;7.10;;;;;;;29.51;40.26;101019.63;5016522;28;70991;-43
2022/01/01 06:48:25;;;;;;;7.68;6.97;;;;;;;29.50;40.14;101009.84;5017464;28;65234;-41
2022/01/01 06:50:55;;;;;;;7.18;6.65;;;;;;;29.39;40.42;100982.44;5014148;28;70321;-42
2022/01/01 06:53:27;;;;;;;7.13;6.63;;;;;;;29.54;39.98;100994.91;5014956;28;66436;-42
2022/01/01 06:55:59;;;;;;;7.50;6.93;;;;;;;29.57;40.10;100994.47;5014762;28;68604;-42
2022/01/01 06:58:29;;;;;;;7.22;6.70;;;;;;;29.58;40.51;100991.53;5009458;28;65260;-42
2022/01/01 07:01:00;;;;;;;7.82;6.78;;;;;;;29.60;40.28;100977.84;5016623;28;70256;-43
2022/01/01 07:03:30;;;;;;;8.68;6.10;;;;;;;29.59;40.38;100970.78;5017311;28;66187;-42
2022/01/01 07:06:01;;;;;;;8.20;6.43;;;;;;;29.62;39.86;100973.06;5016187;28;69011;-42
2022/01/01 07:08:31;;;;;;;6.93;6.38;;;;;;;29.64;39.70;100968.28;5018084;28;66411;-41
2022/01/01 07:11:01;;;;;;;7.07;6.43;;;;;;;29.61;39.78;100963.25;5015567;28;68338;-45
2022/01/01 07:13:32;;;;;;;7.35;6.47;;;;;;;29.68;39.95;100958.72;5015713;28;65832;-42
2022/01/01 07:16:02;;;;;;;5.88;5.47;;;;;;;29.69;39.86;100954.97;5031951;28;70495;-43
2022/01/01 07:18:33;;;;;;;6.28;5.88;;;;;;;29.72;39.99;100948.31;4999786;28;65146;-42
2022/01/01 07:21:03;;;;;;;5.85;5.55;;;;;;;29.74;39.53;100947.06;5016309;28;70298;-42
2022/01/01 07:23:34;;;;;;;6.68;6.28;;;;;;;29.72;40.42;100943.72;5013458;28;65737;-42
2022/01/01 07:26:04;;;;;;;9.27;5.50;;;;;;;29.75;39.86;100948.72;5017632;28;69370;-42
2022/01/01 07:28:34;;;;;;;6.50;5.93;;;;;;;29.77;40.65;100941.22;5015406;28;66297;-42
2022/01/01 07:31:05;;;;;;;6.40;5.90;;;;;;;29.79;40.07;100949.97;5018129;28;69674;-41
2022/01/01 07:33:35;;;;;;;6.65;6.05;;;;;;;29.78;39.53;100942.91;5018208;28;67196;-41
2022/01/01 07:36:06;;;;;;;5.95;5.50;;;;;;;29.64;39.45;100916.09;5017243;28;69425;-42
2022/01/01 07:38:37;;;;;;;5.63;5.22;;;;;;;29.78;39.23;100932.09;5015416;28;65493;-42
2022/01/01 07:41:08;;;;;;;5.57;5.07;;;;;;;29.76;39.44;100933.34;5015420;28;68916;-43
2022/01/01 07:43:45;;;;;;;5.65;5.25;;;;;;;29.72;39.21;100930.22;4996333;28;66236;-42
2022/01/01 07:46:15;;;;;;;5.20;4.80;;;;;;;29.76;39.19;100934.19;5016752;28;69466;-43
2022/01/01 07:48:45;;;;;;;5.18;4.78;;;;;;;29.75;38.66;100932.50;5016910;28;66477;-43
2022/01/01 07:51:16;;;;;;;4.88;4.50;;;;;;;29.74;38.83;100933.53;5015570;28;69781;-42
2022/01/01 07:53:46;;;;;;;7.13;4.68;;;;;;;29.77;39.30;100929.59;5026132;28;65710;-41
2022/01/01 07:56:17;;;;;;;5.53;5.03;;;;;;;29.81;40.00;100931.66;5014916;28;68975;-42
2022/01/01 07:58:47;;;;;;;5.65;5.07;;;;;;;29.89;40.47;100929.75;5018026;28;66704;-42
2022/01/01 08:01:17;;;;;;;8.57;4.90;;;;;;;30.03;41.35;100928.66;5014493;28;70212;-43
2022/01/01 08:03:49;;;;;;;9.55;3.88;;;;;;;30.20;44.15;100923.59;5015920;28;65706;-45
2022/01/01 08:06:20;;;;;;;5.28;3.58;;;;;;;30.39;44.20;100921.91;5011675;28;69956;-44
2022/01/01 08:08:50;;;;;;;12.15;3.58;;;;;;;30.58;44.88;100915.53;5018986;28;66540;-43
2022/01/01 08:11:21;;;;;;;5.28;2.83;;;;;;;30.84;44.29;100919.16;5016312;28;69701;-45
2022/01/01 08:13:54;;;;;;;5.95;2.88;;;;;;;31.04;43.63;100919.84;5016744;28;66103;-41
2022/01/01 08:16:24;;;;;;;5.88;2.95;;;;;;;31.22;43.64;100919.06;5016169;28;70304;-46
2022/01/01 08:18:55;;;;;;;18.10;3.78;;;;;;;31.33;44.14;100912.09;5018811;28;66526;-43
2022/01/01 08:21:26;;;;;;;13.48;3.45;;;;;;;31.45;44.36;100910.31;5008134;28;69179;-42
2022/01/01 08:23:56;;;;;;;21.08;4.53;;;;;;;31.55;44.62;100917.97;5006863;28;66293;-43
2022/01/01 08:26:26;;;;;;;12.75;4.50;;;;;;;31.64;43.94;100915.78;5009236;28;70433;-44
2022/01/01 08:28:57;;;;;;;20.05;5.55;;;;;;;31.66;44.53;100914.50;5010917;28;65210;-43
2022/01/01 08:31:27;;;;;;;23.45;5.60;;;;;;;31.74;44.45;100907.97;5015475;28;70085;-43
2022/01/01 08:33:57;;;;;;;26.88;6.72;;;;;;;31.80;44.67;100912.47;5017475;28;66307;-43
2022/01/01 08:36:28;;;;;;;15.93;5.95;;;;;;;31.90;44.97;100918.22;5016189;28;69887;-44
2022/01/01 08:38:58;;;;;;;23.73;5.43;;;;;;;31.97;44.56;100912.72;5014197;28;66581;-44
2022/01/01 08:41:28;;;;;;;40.92;5.90;;;;;;;32.04;44.86;100914.31;5017466;28;70038;-42
2022/01/01 08:43:59;;;;;;;21.33;5.95;;;;;;;32.11;44.45;100908.78;5012809;28;66755;-42
2022/01/01 08:46:30;;;;;;;34.60;6.20;;;;;;;32.21;44.80;100924.56;5018858;28;69671;-41
2022/01/01 08:49:03;;;;;;;21.95;5.55;;;;;;;32.26;44.92;100922.81;5018754;28;66189;-43
2022/01/01 08:51:41;;;;;;;35.53;5.60;;;;;;;32.31;45.07;100919.38;5015804;28;70430;-42
2022/01/01 08:54:14;;;;;;;36.75;6.53;;;;;;;32.36;45.61;100926.84;5014113;28;66482;-43
2022/01/01 08:56:44;;;;;;;40.85;10.15;;;;;;;32.39;46.14;100926.41;5020509;28;69615;-44
2022/01/01 08:59:16;;;;;;;32.75;10.57;;;;;;;32.36;46.14;100913.28;5018407;28;65508;-43
2022/01/01 09:01:46;;;;;;;25.77;7.87;;;;;;;32.39;44.96;100927.22;5016255;28;70626;-45
2022/01/01 09:04:17;;;;;;;21.55;11.48;;;;;;;32.48;44.98;100925.03;5017942;28;66575;-43
2022/01/01 09:06:47;;;;;;;19.95;12.05;;;;;;;32.53;44.89;100927.06;5017443;28;70527;-44
2022/01/01 09:09:18;;;;;;;28.65;11.80;;;;;;;32.58;45.33;100924.50;5016750;28;65897;-42
2022/01/01 09:11:48;;;;;;;41.95;13.93;;;;;;;32.61;45.68;100924.84;5010894;28;69926;-45
2022/01/01 09:14:19;;;;;;;40.05;16.80;;;;;;;32.64;46.24;100923.56;5017319;28;65417;-42
2022/01/01 09:16:50;;;;;;;47.60;16.50;;;;;;;32.66;46.71;100929.59;5017606;28;70193;-42
2022/01/01 09:19:20;;;;;;;43.08;18.45;;;;;;;32.66;46.62;100932.31;5018568;28;66748;-42
2022/01/01 09:21:51;;;;;;;58.28;20.52;;;;;;;32.64;46.53;100935.25;5017537;28;70192;-42
2022/01/01 09:24:21;;;;;;;47.47;19.27;;;;;;;32.68;47.21;100941.03;5021556;28;66157;-42
2022/01/01 09:26:52;;;;;;;46.58;18.45;;;;;;;32.68;46.96;100933.75;5015335;28;70043;-43
2022/01/01 09:29:23;;;;;;;28.63;16.50;;;;;;;32.68;47.23;100943.75;5014786;28;66831;-42
2022/01/01 09:31:54;;;;;;;37.00;16.00;;;;;;;32.55;47.73;100919.53;5022273;28;69929;-42
2022/01/01 09:34:25;;;;;;;71.13;15.77;;;;;;;32.66;48.30;100954.03;5022390;28;66238;-42
2022/01/01 09:36:57;;;;;;;53.55;13.77;;;;;;;32.63;48.96;100962.66;5019373;28;69380;-42
2022/01/01 09:39:28;;;;;;;58.07;12.50;;;;;;;32.59;48.97;100961.44;5017430;28;67478;-44
2022/01/01 09:42:01;;;;;;;42.45;11.32;;;;;;;32.62;49.89;100963.69;5020189;28;70043;-43
2022/01/01 09:44:36;;;;;;;32.50;12.07;;;;;;;32.63;50.31;100968.09;5015450;28;66778;-42
2022/01/01 09:47:07;;;;;;;35.90;11.30;;;;;;;32.56;50.17;100961.91;5019721;28;69606;-43
2022/01/01 09:49:38;;;;;;;17.52;8.90;;;;;;;32.57;50.60;100971.69;5011958;28;66286;-40
2022/01/01 09:52:09;;;;;;;21.60;8.85;;;;;;;32.45;50.51;100958.06;5034937;28;70064;-44
2022/01/01 09:54:44;;;;;;;34.17;9.50;;;;;;;32.58;50.97;100978.81;5019837;28;65336;-42
2022/01/01 09:57:15;;;;;;;32.70;10.43;;;;;;;32.57;50.65;100982.56;5019506;28;70554;-42
2022/01/01 09:59:46;;;;;;;25.98;8.77;;;;;;;32.53;50.54;100987.63;5020057;28;66231;-42
2022/01/01 10:02:17;;;;;;;20.58;9.05;;;;;;;32.48;50.69;100980.19;5021242;28;70287;-44
2022/01/01 10:04:51;;;;;;;27.08;9.02;;;;;;;32.47;50.95;100980.41;5017209;28;65421;-44
2022/01/01 10:07:29;;;;;;;22.00;7.90;;;;;;;32.45;51.09;100991.47;5014817;28;71048;-42
2022/01/01 10:10:19;;;;;;;19.25;6.95;;;;;;;32.39;51.32;100995.09;5015810;28;65833;-42
2022/01/01 10:12:50;;;;;;;14.32;6.85;;;;;;;32.42;50.42;100997.34;5013129;28;70890;-42
2022/01/01 10:15:20;;;;;;;9.15;6.43;;;;;;;32.39;50.55;100997.81;5008777;28;66563;-43
2022/01/01 10:17:52;;;;;;;13.95;6.97;;;;;;;32.23;50.63;100974.00;5015897;28;70642;-43
2022/01/01 10:20:23;;;;;;;16.25;7.50;;;;;;;32.36;50.71;101006.41;5021034;28;66687;-42
2022/01/01 10:22:54;;;;;;;18.40;7.68;;;;;;;32.34;50.70;101016.66;5017712;28;69855;-40
2022/01/01 10:28:21;;;;;;;15.45;7.20;;;;;;;32.32;51.17;101024.22;5009340;28;69839;-41
2022/01/01 10:30:51;;;;;;;16.58;6.63;;;;;;;32.30;51.09;101026.31;5012233;28;66426;-41
2022/01/01 10:33:23;;;;;;;12.70;7.30;;;;;;;32.32;51.25;101039.66;5009036;28;70055;-40
2022/01/01 10:35:56;;;;;;;21.83;7.72;;;;;;;32.30;52.16;101039.91;5032048;28;65887;-43
2022/01/01 10:38:28;;;;;;;27.65;7.65;;;;;;;32.28;52.20;101040.09;5018021;28;70185;-41
2022/01/01 10:41:09;;;;;;;17.77;6.43;;;;;;;32.28;52.56;101036.56;4982200;28;65075;-41
2022/01/01 10:43:44;;;;;;;14.25;7.07;;;;;;;32.16;52.76;101024.81;5019571;28;69914;-41
2022/01/01 10:46:17;;;;;;;11.00;7.28;;;;;;;32.25;52.19;101047.88;5013897;28;66698;-42
2022/01/01 10:51:19;;;;;;;10.40;6.57;;;;;;;32.19;52.73;101040.66;5014747;28;66268;-41
2022/01/01 10:54:10;;;;;;;20.80;6.63;;;;;;;32.12;53.26;101050.72;5019564;28;70159;-41
2022/01/01 10:56:40;;;;;;;9.35;6.70;;;;;;;32.19;52.64;101051.50;5020879;28;65666;-42
2022/01/01 10:59:12;;;;;;;16.35;7.05;;;;;;;32.18;52.39;101060.69;5019724;28;70393;-41
2022/01/01 11:01:44;;;;;;;9.38;6.50;;;;;;;32.15;52.62;101066.56;5014596;28;66319;-42
2022/01/01 11:04:15;;;;;;;15.55;6.18;;;;;;;32.12;52.80;101061.59;5020323;28;69929;-42
2022/01/01 11:06:46;;;;;;;17.95;6.95;;;;;;;32.12;53.22;101075.16;5013024;28;66114;-42
2022/01/01 11:09:18;;;;;;;15.80;7.15;;;;;;;32.09;53.09;101078.31;5017117;28;69722;-43
2022/01/01 11:11:51;;;;;;;11.00;6.38;;;;;;;32.09;53.39;101079.16;5010094;28;43233;-42
2022/01/01 11:14:24;;;;;;;11.93;6.30;;;;;;;32.08;53.12;101082.09;5010227;28;69617;-41
2022/01/01 11:16:55;;;;;;;11.35;6.30;;;;;;;32.02;53.32;101079.22;5013836;28;65482;-42
2022/01/01 11:19:29;;;;;;;9.18;6.32;;;;;;;31.94;53.66;101071.38;5018199;28;70094;-41
2022/01/01 11:22:00;;;;;;;8.10;5.68;;;;;;;32.03;53.61;101097.16;5019128;28;65148;-41
2022/01/01 11:24:32;;;;;;;12.50;6.78;;;;;;;32.02;53.77;101095.50;5018445;28;70239;-42
2022/01/01 11:27:02;;;;;;;12.43;6.10;;;;;;;32.00;54.00;101097.59;5015685;28;66123;-40
2022/01/01 11:29:36;;;;;;;15.57;6.55;;;;;;;31.98;54.31;101091.59;5018561;28;70211;-43
2022/01/01 11:32:11;;;;;;;13.95;8.00;;;;;;;31.97;54.65;101103.47;5016404;28;66078;-40
2022/01/01 11:34:45;;;;;;;18.05;7.93;;;;;;;31.89;54.94;101101.00;5009433;28;69543;-40
2022/01/01 11:37:23;;;;;;;17.88;9.27;;;;;;;31.79;54.84;101092.56;5014349;28;66506;-40
2022/01/01 11:39:57;;;;;;;20.23;9.40;;;;;;;31.88;55.20;101109.38;5017416;28;69599;-40
2022/01/01 11:42:45;;;;;;;44.22;10.65;;;;;;;31.64;55.26;101090.16;5017458;28;66616;-39
2022/01/01 11:45:50;;;;;;;23.52;9.75;;;;;;;31.63;55.92;101114.81;5016144;28;70149;-40
2022/01/01 11:48:32;;;;;;;31.73;9.02;;;;;;;31.70;56.35;101119.09;5036694;28;66204;-40